Meadowbrook, West Virginia
Current Conditions -  °F | °C
As of 6:53 PM on Saturday 22 Nov 2014 (Local Time) from KCKB Reporting Station
Overcast Overcast  
Wind Chill: 50°   Ceiling: 10000
Heat Index: 50°   Visibility: 10mi
Dew Point: 29°   Wind: 3mph
Humidity: 44%   Direction: 160°SSE
Pressure: 30.16"   Gusts: NA
Location:  39.35°N, 80.31°W
Report Text: KCKB 222353Z 16003KT 10SM OVC100 10/M02 A3016 RMK AO2 SLP219 T01001017 10122 20094 56012
Loading
Personal Weather Stations






























Interactive Weather Map New forecast layout! Learn more

10-Day Weather Forecast

Advertisements
Track Severe Weather on mobile